createdAt,value
2018-09-24T00:01:22.752Z,97.27
2018-09-24T00:03:52.666Z,97.83
2018-09-24T00:06:22.281Z,97.32
2018-09-24T00:08:51.913Z,96.94
2018-09-24T00:11:21.609Z,97.89
2018-09-24T00:13:52.289Z,97.84
2018-09-24T00:16:22.561Z,97.21
2018-09-24T00:18:52.576Z,97.06
2018-09-24T00:21:25.870Z,97.56
2018-09-24T00:23:55.489Z,98.03
2018-09-24T00:26:25.813Z,97.58
2018-09-24T00:28:55.537Z,98.20
2018-09-24T00:31:25.177Z,98.48
2018-09-24T00:33:55.299Z,97.28
2018-09-24T00:36:27.977Z,97.19
2018-09-24T00:38:57.643Z,98.20
2018-09-24T00:41:27.723Z,98.03
2018-09-24T00:43:57.353Z,98.04
2018-09-24T00:46:26.991Z,98.30
2018-09-24T00:48:57.042Z,97.15
2018-09-24T00:51:26.651Z,97.34
2018-09-24T00:53:56.289Z,97.37
2018-09-24T00:56:25.925Z,97.39
2018-09-24T00:58:55.520Z,97.42
2018-09-24T01:01:25.320Z,98.22
2018-09-24T01:03:55.285Z,97.98
2018-09-24T01:06:24.929Z,98.03
2018-09-24T01:08:54.569Z,99.05
2018-09-24T01:11:24.238Z,98.02
2018-09-24T01:13:54.205Z,98.35
2018-09-24T01:16:23.861Z,97.64
2018-09-24T01:18:53.454Z,97.89
2018-09-24T01:21:23.120Z,98.73
2018-09-24T01:23:52.774Z,98.52
2018-09-24T01:26:22.424Z,97.68
2018-09-24T01:28:52.418Z,97.94
2018-09-24T01:31:22.062Z,97.14
2018-09-24T01:33:51.701Z,97.47
2018-09-24T01:36:21.314Z,98.38
2018-09-24T01:38:51.013Z,98.08
2018-09-24T01:41:21.052Z,98.64
2018-09-24T01:43:51.084Z,98.31
2018-09-24T01:46:20.718Z,98.05
2018-09-24T01:48:50.380Z,98.11
2018-09-24T01:51:20.401Z,98.58
2018-09-24T01:53:50.029Z,98.01
2018-09-24T01:56:19.653Z,99.21
2018-09-24T01:58:49.285Z,99.25
2018-09-24T02:01:19.420Z,97.85
2018-09-24T02:03:49.090Z,97.33
2018-09-24T02:06:18.712Z,98.04
2018-09-24T02:08:48.873Z,98.67
2018-09-24T02:11:18.506Z,98.40
2018-09-24T02:13:50.470Z,98.29
2018-09-24T02:16:21.253Z,98.13
2018-09-24T02:18:51.387Z,98.12
2018-09-24T02:21:21.022Z,98.55
2018-09-24T02:23:51.002Z,99.12
2018-09-24T02:26:20.685Z,99.09
2018-09-24T02:28:50.377Z,98.96
2018-09-24T02:31:20.444Z,97.62
2018-09-24T02:33:50.094Z,97.54
2018-09-24T02:36:19.732Z,97.81
2018-09-24T02:38:49.381Z,98.50
2018-09-24T02:41:19.018Z,99.70
2018-09-24T02:43:48.676Z,98.56
2018-09-24T02:46:18.601Z,99.95
2018-09-24T02:48:48.277Z,98.86
2018-09-24T02:51:17.942Z,98.24
2018-09-24T02:53:47.599Z,98.48
2018-09-24T02:56:18.943Z,98.01
2018-09-24T02:58:48.609Z,99.24
2018-09-24T03:01:19.098Z,98.05
2018-09-24T03:03:48.810Z,98.62
2018-09-24T03:06:22.559Z,97.10
2018-09-24T03:08:52.241Z,97.45
2018-09-24T03:11:22.557Z,97.93
2018-09-24T03:13:52.424Z,97.58
2018-09-24T03:16:22.131Z,98.00
2018-09-24T03:18:58.871Z,97.53
2018-09-24T03:21:32.177Z,97.53
2018-09-24T03:24:01.990Z,97.02
2018-09-24T03:26:31.625Z,97.93
2018-09-24T03:29:01.596Z,97.96
2018-09-24T03:31:36.113Z,98.18
2018-09-24T03:34:06.568Z,98.92
2018-09-24T03:36:36.391Z,98.69
2018-09-24T03:39:07.976Z,99.17
2018-09-24T03:41:38.533Z,98.78
2018-09-24T03:44:09.148Z,99.10
2018-09-24T03:46:39.702Z,98.73
2018-09-24T03:49:09.632Z,97.94
2018-09-24T03:51:39.350Z,97.11
2018-09-24T03:54:11.261Z,98.24
2018-09-24T03:56:44.882Z,97.72
2018-09-24T03:59:14.537Z,97.84
2018-09-24T04:01:45.253Z,98.35
2018-09-24T04:04:20.777Z,98.02
2018-09-24T04:06:55.614Z,97.80
2018-09-24T04:09:30.190Z,98.01
2018-09-24T04:12:05.813Z,98.93
2018-09-24T04:14:40.717Z,97.86
2018-09-24T04:17:15.185Z,97.90
2018-09-24T04:19:50.178Z,97.23
2018-09-24T04:22:24.744Z,97.48
2018-09-24T04:24:59.753Z,97.99
2018-09-24T04:27:35.274Z,97.79
2018-09-24T04:30:10.223Z,98.02
2018-09-24T04:32:44.665Z,98.74
2018-09-24T04:35:19.148Z,98.56
2018-09-24T04:37:55.697Z,97.56
2018-09-24T04:40:30.178Z,98.45
2018-09-24T04:43:05.389Z,98.27
2018-09-24T04:45:39.902Z,97.31
2018-09-24T04:48:16.000Z,97.30
2018-09-24T04:50:50.531Z,96.61
2018-09-24T04:53:24.978Z,97.78
2018-09-24T04:55:59.936Z,97.99
2018-09-24T04:58:36.143Z,97.57
2018-09-24T05:01:10.736Z,97.90
2018-09-24T05:03:45.350Z,98.33
2018-09-24T05:06:20.526Z,96.21
2018-09-24T05:08:55.158Z,97.33
2018-09-24T05:11:30.085Z,98.37
2018-09-24T05:14:05.210Z,98.40
2018-09-24T05:16:39.840Z,97.24
2018-09-24T05:19:14.857Z,97.16
2018-09-24T05:21:49.454Z,97.77
2018-09-24T05:24:24.065Z,97.19
2018-09-24T05:26:58.631Z,97.08
2018-09-24T05:29:33.770Z,97.20
2018-09-24T05:32:08.344Z,97.63
2018-09-24T05:34:43.994Z,97.30
2018-09-24T05:37:20.534Z,97.03
2018-09-24T05:39:55.455Z,96.58
2018-09-24T05:42:30.535Z,96.99
2018-09-24T05:45:05.500Z,96.32
2018-09-24T05:47:40.081Z,96.30
2018-09-24T05:50:18.516Z,96.73
2018-09-24T05:52:53.714Z,95.95
2018-09-24T05:55:28.375Z,95.80
2018-09-24T05:58:02.825Z,96.30
2018-09-24T06:00:37.557Z,96.45
2018-09-24T06:03:11.996Z,96.43
2018-09-24T06:05:46.530Z,96.27
2018-09-24T06:08:21.982Z,95.96
2018-09-24T06:10:57.302Z,96.44
2018-09-24T06:13:32.677Z,96.63
2018-09-24T06:16:07.126Z,95.91
2018-09-24T06:18:42.370Z,95.22
2018-09-24T06:21:17.286Z,95.19
2018-09-24T06:23:51.819Z,95.80
2018-09-24T06:26:27.178Z,95.45
2018-09-24T06:29:02.145Z,95.28
2018-09-24T06:31:37.393Z,95.85
2018-09-24T06:34:12.649Z,96.06
2018-09-24T06:36:48.766Z,94.94
2018-09-24T06:39:24.584Z,95.45
2018-09-24T06:42:00.149Z,95.28
2018-09-24T06:44:35.376Z,96.35
2018-09-24T06:47:11.630Z,95.87
2018-09-24T06:49:47.253Z,96.05
2018-09-24T06:52:23.250Z,96.41
2018-09-24T06:54:58.268Z,95.43
2018-09-24T06:57:32.776Z,95.51
2018-09-24T07:00:07.668Z,95.89
2018-09-24T07:02:43.181Z,96.42
2018-09-24T07:05:18.088Z,96.76
2018-09-24T07:07:52.708Z,94.93
2018-09-24T07:10:27.200Z,95.34
2018-09-24T07:13:02.019Z,93.92
2018-09-24T07:15:36.588Z,92.93
2018-09-24T07:18:14.048Z,93.70
2018-09-24T07:20:49.210Z,93.47
2018-09-24T07:23:24.682Z,91.43
2018-09-24T07:26:00.217Z,90.53
2018-09-24T07:31:16.302Z,89.71
2018-09-24T07:33:51.429Z,90.98
2018-09-24T07:36:26.470Z,88.50
2018-09-24T07:39:03.029Z,88.67
2018-09-24T07:41:38.547Z,89.29
2018-09-24T07:44:13.230Z,90.38
2018-09-24T07:46:48.873Z,89.33
2018-09-24T07:49:30.949Z,90.77
2018-09-24T07:52:07.062Z,91.10
2018-09-24T07:54:41.969Z,91.46
2018-09-24T07:57:17.353Z,94.36
2018-09-24T07:59:51.984Z,93.53
2018-09-24T08:02:35.821Z,93.29
2018-09-24T08:05:19.462Z,94.33
2018-09-24T08:08:04.999Z,93.94
2018-09-24T08:10:47.285Z,93.23
2018-09-24T08:13:21.933Z,91.16
2018-09-24T08:15:59.202Z,90.60
2018-09-24T08:18:34.234Z,90.80
2018-09-24T08:21:09.947Z,94.10
2018-09-24T08:23:44.557Z,92.18
2018-09-24T08:26:19.566Z,91.43
2018-09-24T08:28:54.209Z,90.86
2018-09-24T08:31:29.630Z,84.48
2018-09-24T08:34:04.641Z,85.05
2018-09-24T08:36:39.290Z,83.83
2018-09-24T08:39:15.206Z,82.29
2018-09-24T08:41:49.909Z,81.53
2018-09-24T08:44:26.137Z,83.33
2018-09-24T08:47:03.394Z,83.99
2018-09-24T08:49:38.968Z,80.28
2018-09-24T08:52:14.102Z,81.43
2018-09-24T08:54:49.655Z,82.00
2018-09-24T08:57:24.862Z,82.17
2018-09-24T09:00:01.917Z,81.82
2018-09-24T09:02:37.604Z,81.54
2018-09-24T09:05:12.209Z,81.46
2018-09-24T09:07:47.390Z,79.19
2018-09-24T09:10:21.862Z,80.35
2018-09-24T09:12:56.924Z,78.04
2018-09-24T09:15:42.678Z,80.11
2018-09-24T09:18:18.762Z,78.49
2018-09-24T09:20:53.336Z,79.36
2018-09-24T09:23:28.429Z,80.12
2018-09-24T09:26:04.622Z,75.55
2018-09-24T09:28:40.858Z,75.83
2018-09-24T09:31:15.422Z,75.11
2018-09-24T09:33:50.342Z,74.79
2018-09-24T09:36:26.239Z,73.70
2018-09-24T09:39:00.850Z,74.62
2018-09-24T09:41:35.488Z,77.50
2018-09-24T09:44:10.711Z,79.50
2018-09-24T09:46:45.743Z,79.33
2018-09-24T09:49:21.177Z,81.13
2018-09-24T09:51:57.259Z,81.15
2018-09-24T09:54:31.931Z,80.15
2018-09-24T09:57:06.928Z,81.34
2018-09-24T09:59:41.425Z,80.61
2018-09-24T10:02:15.901Z,81.98
2018-09-24T10:04:50.609Z,80.05
2018-09-24T10:07:25.540Z,78.90
2018-09-24T10:10:01.320Z,79.24
2018-09-24T10:12:36.730Z,75.81
2018-09-24T10:15:11.445Z,77.14
2018-09-24T10:17:47.822Z,75.95
2018-09-24T10:20:22.349Z,73.48
2018-09-24T10:22:57.556Z,72.88
2018-09-24T10:25:33.400Z,72.49
2018-09-24T10:28:08.114Z,71.22
2018-09-24T10:30:43.184Z,71.68
2018-09-24T10:33:18.279Z,71.11
2018-09-24T10:35:54.879Z,69.07
2018-09-24T10:38:30.416Z,68.83
2018-09-24T10:41:05.354Z,66.95
2018-09-24T10:43:40.816Z,67.53
2018-09-24T10:46:15.835Z,69.49
2018-09-24T10:48:50.702Z,66.49
2018-09-24T10:51:28.376Z,68.91
2018-09-24T10:54:03.486Z,68.24
2018-09-24T10:56:39.437Z,70.04
2018-09-24T10:59:15.991Z,71.42
2018-09-24T11:01:52.245Z,69.29
2018-09-24T11:04:26.879Z,69.56
2018-09-24T11:07:01.865Z,69.40
2018-09-24T11:09:37.478Z,65.14
2018-09-24T11:12:12.525Z,65.48
2018-09-24T11:14:48.718Z,62.56
2018-09-24T11:17:24.209Z,63.90
2018-09-24T11:19:58.847Z,61.75
2018-09-24T11:22:35.090Z,61.85
2018-09-24T11:25:10.273Z,60.33
2018-09-24T11:27:44.959Z,61.03
2018-09-24T11:30:20.681Z,61.54
2018-09-24T11:32:55.446Z,62.57
2018-09-24T11:35:29.945Z,64.97
2018-09-24T11:38:05.388Z,65.70
2018-09-24T11:40:40.465Z,65.52
2018-09-24T11:43:14.889Z,63.00
2018-09-24T11:45:49.699Z,64.30
2018-09-24T11:48:24.398Z,61.94
2018-09-24T11:50:59.502Z,59.83
2018-09-24T11:53:34.197Z,61.06
2018-09-24T11:56:08.750Z,63.78
2018-09-24T11:58:43.726Z,63.87
2018-09-24T12:01:19.406Z,65.33
2018-09-24T12:03:55.618Z,62.91
2018-09-24T12:06:30.842Z,60.23
2018-09-24T12:09:07.427Z,59.51
2018-09-24T12:11:42.236Z,58.03
2018-09-24T12:14:17.733Z,58.06
2018-09-24T12:16:52.421Z,53.84
2018-09-24T12:19:27.399Z,55.11
2018-09-24T12:22:02.436Z,54.30
2018-09-24T12:24:38.763Z,52.77
2018-09-24T12:27:13.430Z,53.58
2018-09-24T12:29:48.617Z,52.93
2018-09-24T12:32:24.364Z,50.17
2018-09-24T12:35:00.385Z,49.96
2018-09-24T12:37:35.805Z,51.12
2018-09-24T12:40:13.216Z,50.67
2018-09-24T12:42:49.208Z,51.70
2018-09-24T12:45:24.628Z,50.76
2018-09-24T12:47:59.312Z,51.29
2018-09-24T12:50:36.731Z,51.60
2018-09-24T12:53:13.401Z,52.26
2018-09-24T12:55:49.502Z,53.07
2018-09-24T12:58:25.191Z,53.89
2018-09-24T13:01:09.612Z,53.80
2018-09-24T13:03:54.393Z,52.80
2018-09-24T13:06:29.345Z,54.68
2018-09-24T13:09:05.568Z,54.53
2018-09-24T13:11:44.005Z,55.09
2018-09-24T13:14:20.868Z,57.61
2018-09-24T13:16:56.601Z,58.08
2018-09-24T13:19:35.277Z,59.51
2018-09-24T13:22:12.215Z,65.05
2018-09-24T13:24:50.043Z,67.87
2018-09-24T13:27:26.810Z,67.16
2018-09-24T13:30:02.324Z,66.99
2018-09-24T13:32:38.902Z,65.38
2018-09-24T13:35:15.638Z,66.70
2018-09-24T13:37:52.989Z,65.97
2018-09-24T13:40:28.511Z,64.10
2018-09-24T13:43:03.122Z,64.05
2018-09-24T13:45:37.695Z,63.25
2018-09-24T13:48:12.846Z,63.33
2018-09-24T13:50:51.454Z,62.05
2018-09-24T13:53:26.665Z,62.56
2018-09-24T13:56:02.246Z,62.63
2018-09-24T13:58:37.824Z,63.17
2018-09-24T14:01:14.365Z,63.95
2018-09-24T14:03:49.989Z,65.05
2018-09-24T14:06:24.809Z,64.00
2018-09-24T14:09:03.133Z,66.62
2018-09-24T14:11:38.262Z,65.54
2018-09-24T14:14:13.702Z,67.64
2018-09-24T14:16:52.566Z,67.91
2018-09-24T14:19:27.384Z,69.15
2018-09-24T14:22:02.550Z,68.27
2018-09-24T14:24:37.268Z,68.09
2018-09-24T14:27:12.210Z,67.38
2018-09-24T14:29:46.639Z,66.69
2018-09-24T14:32:21.961Z,67.05
2018-09-24T14:34:57.458Z,67.55
2018-09-24T14:37:32.992Z,66.89
2018-09-24T14:40:11.183Z,68.13
2018-09-24T14:42:47.450Z,69.02
2018-09-24T14:45:22.288Z,68.71
2018-09-24T14:47:58.661Z,71.04
2018-09-24T14:50:35.774Z,73.35
2018-09-24T14:53:12.115Z,74.16
2018-09-24T14:55:47.837Z,77.10
2018-09-24T14:58:23.489Z,77.81
2018-09-24T15:00:58.375Z,78.32
2018-09-24T15:03:37.332Z,80.33
2018-09-24T15:06:13.152Z,80.46
2018-09-24T15:08:48.953Z,79.48
2018-09-24T15:11:24.259Z,80.56
2018-09-24T15:13:58.985Z,81.92
2018-09-24T15:16:34.212Z,81.54
2018-09-24T15:19:10.249Z,81.59
2018-09-24T15:21:46.618Z,82.29
2018-09-24T15:24:24.566Z,83.01
2018-09-24T15:27:01.693Z,85.51
2018-09-24T15:29:38.856Z,87.02
2018-09-24T15:32:15.604Z,87.92
2018-09-24T15:34:50.557Z,88.41
2018-09-24T15:37:25.321Z,87.74
2018-09-24T15:40:00.740Z,87.97
2018-09-24T15:42:38.894Z,87.51
2018-09-24T15:45:14.258Z,87.54
2018-09-24T15:47:51.113Z,88.36
2018-09-24T15:50:26.499Z,88.65
2018-09-24T15:53:02.157Z,88.04
2018-09-24T15:55:36.837Z,87.94
2018-09-24T15:58:12.966Z,88.14
2018-09-24T16:00:48.634Z,88.17
2018-09-24T16:03:24.382Z,89.00
2018-09-24T16:05:59.995Z,88.88
2018-09-24T16:08:36.842Z,88.67
2018-09-24T16:11:15.426Z,86.99
2018-09-24T16:13:53.407Z,88.12
2018-09-24T16:16:29.676Z,88.04
2018-09-24T16:19:04.655Z,88.90
2018-09-24T16:21:41.353Z,90.07
2018-09-24T16:24:18.090Z,89.61
2018-09-24T16:26:59.237Z,90.70
2018-09-24T16:29:36.063Z,90.15
2018-09-24T16:32:13.429Z,90.84
2018-09-24T16:34:49.225Z,90.26
2018-09-24T16:37:24.553Z,89.69
2018-09-24T16:40:01.298Z,89.58
2018-09-24T16:42:40.195Z,89.19
2018-09-24T16:45:20.483Z,89.22
2018-09-24T16:48:02.462Z,89.87
2018-09-24T16:50:48.717Z,91.64
2018-09-24T16:53:38.672Z,91.72
2018-09-24T16:56:16.688Z,90.30
2018-09-24T16:58:58.362Z,91.53
2018-09-24T17:01:33.493Z,90.67
2018-09-24T17:04:10.097Z,90.16
2018-09-24T17:06:48.418Z,90.25
2018-09-24T17:10:26.476Z,92.87
2018-09-24T17:13:00.942Z,91.50
2018-09-24T17:15:36.741Z,91.96
2018-09-24T17:18:13.508Z,92.08
2018-09-24T17:20:48.582Z,92.26
2018-09-24T17:23:26.844Z,93.02
2018-09-24T17:26:03.961Z,92.29
2018-09-24T17:28:40.801Z,92.23
2018-09-24T17:31:17.193Z,92.68
2018-09-24T17:33:56.566Z,92.44
2018-09-24T17:36:32.683Z,94.10
2018-09-24T17:39:07.432Z,92.84
2018-09-24T17:41:44.706Z,93.04
2018-09-24T17:44:19.381Z,93.34
2018-09-24T17:46:55.626Z,93.31
2018-09-24T17:49:31.165Z,92.84
2018-09-24T17:52:07.696Z,92.83
2018-09-24T17:54:42.516Z,93.10
2018-09-24T17:57:19.625Z,93.29
2018-09-24T17:59:56.849Z,94.29
2018-09-24T18:02:35.305Z,93.69
2018-09-24T18:05:10.440Z,92.38
2018-09-24T18:07:46.398Z,93.82
2018-09-24T18:10:21.431Z,92.97
2018-09-24T18:12:58.949Z,92.33
2018-09-24T18:15:34.676Z,93.44
2018-09-24T18:18:09.698Z,93.88
2018-09-24T18:20:45.133Z,94.26
2018-09-24T18:23:20.496Z,94.36
2018-09-24T18:25:55.512Z,94.94
2018-09-24T18:28:32.450Z,94.68
2018-09-24T18:31:08.481Z,95.53
2018-09-24T18:33:44.697Z,95.61
2018-09-24T18:36:19.607Z,94.97
2018-09-24T18:38:55.518Z,95.13
2018-09-24T18:41:30.849Z,94.11
2018-09-24T18:44:08.157Z,93.94
2018-09-24T18:46:44.457Z,94.61
2018-09-24T18:49:20.438Z,92.61
2018-09-24T18:51:55.412Z,92.71
2018-09-24T18:54:31.478Z,94.72
2018-09-24T18:57:09.205Z,94.17
2018-09-24T18:59:45.298Z,94.99
2018-09-24T19:02:22.024Z,95.49
2018-09-24T19:04:57.443Z,94.33
2018-09-24T19:07:32.263Z,94.58
2018-09-24T19:10:07.944Z,94.56
2018-09-24T19:12:45.752Z,95.50
2018-09-24T19:15:22.425Z,95.15
2018-09-24T19:17:58.291Z,95.45
2018-09-24T19:20:33.702Z,94.88
2018-09-24T19:23:09.574Z,95.20
2018-09-24T19:25:47.388Z,95.20
2018-09-24T19:28:23.738Z,94.95
2018-09-24T19:31:03.507Z,95.48
2018-09-24T19:33:41.000Z,95.71
2018-09-24T19:36:17.419Z,95.39
2018-09-24T19:38:54.681Z,95.53
2018-09-24T19:41:30.120Z,95.86
2018-09-24T19:44:06.639Z,95.02
2018-09-24T19:46:47.049Z,95.02
2018-09-24T19:49:24.876Z,93.64
2018-09-24T19:52:00.372Z,93.69
2018-09-24T19:54:36.781Z,94.42
2018-09-24T19:57:15.541Z,93.92
2018-09-24T19:59:50.802Z,94.52
2018-09-24T20:02:28.865Z,93.41
2018-09-24T20:05:07.296Z,94.57
2018-09-24T20:07:41.712Z,93.72
2018-09-24T20:10:20.269Z,94.10
2018-09-24T20:12:55.973Z,93.61
2018-09-24T20:15:30.677Z,93.25
2018-09-24T20:18:05.818Z,93.69
2018-09-24T20:20:46.437Z,94.10
2018-09-24T20:23:26.062Z,93.51
2018-09-24T20:26:01.673Z,94.91
2018-09-24T20:28:36.767Z,94.65
2018-09-24T20:31:14.293Z,95.53
2018-09-24T20:33:53.117Z,94.02
2018-09-24T20:36:28.681Z,94.45
2018-09-24T20:39:03.438Z,94.70
2018-09-24T20:41:39.102Z,94.03
2018-09-24T20:44:18.364Z,94.63
2018-09-24T20:46:54.645Z,94.53
2018-09-24T20:49:29.862Z,94.53
2018-09-24T20:52:05.458Z,94.58
2018-09-24T20:54:41.219Z,93.49
2018-09-24T20:57:16.414Z,94.17
2018-09-24T20:59:52.304Z,94.58
2018-09-24T21:02:28.896Z,95.02
2018-09-24T21:05:04.765Z,94.70
2018-09-24T21:07:39.318Z,95.23
2018-09-24T21:10:14.405Z,94.24
2018-09-24T21:12:53.721Z,95.06
2018-09-24T21:15:31.026Z,94.21
2018-09-24T21:18:05.536Z,93.95
2018-09-24T21:20:41.813Z,94.33
2018-09-24T21:23:17.424Z,94.12
2018-09-24T21:25:52.489Z,93.62
2018-09-24T21:28:27.875Z,93.76
2018-09-24T21:31:03.408Z,94.45
2018-09-24T21:33:39.420Z,93.55
2018-09-24T21:36:15.432Z,93.89
2018-09-24T21:38:49.938Z,94.16
2018-09-24T21:41:26.506Z,94.18
2018-09-24T21:44:01.066Z,93.95
2018-09-24T21:46:39.991Z,94.44
2018-09-24T21:49:14.633Z,94.33
2018-09-24T21:51:53.445Z,94.15
2018-09-24T21:54:29.304Z,94.23
2018-09-24T21:57:03.735Z,94.60
2018-09-24T21:59:38.620Z,94.39
2018-09-24T22:02:14.116Z,94.07
2018-09-24T22:04:49.061Z,94.50
2018-09-24T22:07:23.773Z,95.18
2018-09-24T22:09:58.304Z,95.27
2018-09-24T22:12:34.612Z,94.96
2018-09-24T22:15:10.513Z,94.08
2018-09-24T22:17:45.077Z,94.62
2018-09-24T22:20:20.277Z,94.12
2018-09-24T22:22:56.313Z,94.57
2018-09-24T22:25:31.240Z,95.06
2018-09-24T22:28:05.794Z,95.10
2018-09-24T22:30:40.421Z,94.50
2018-09-24T22:33:16.454Z,94.32
2018-09-24T22:35:52.403Z,94.63
2018-09-24T22:38:28.201Z,94.23
2018-09-24T22:41:02.757Z,94.46
2018-09-24T22:43:39.267Z,94.15
2018-09-24T22:46:15.174Z,94.81
2018-09-24T22:48:49.685Z,94.11
2018-09-24T22:51:24.302Z,94.22
2018-09-24T22:53:58.962Z,94.82
2018-09-24T22:56:33.875Z,94.72
2018-09-24T22:59:08.405Z,95.11
2018-09-24T23:01:42.976Z,94.99
2018-09-24T23:04:19.093Z,95.28
2018-09-24T23:06:53.629Z,95.17
2018-09-24T23:09:29.569Z,95.64
2018-09-24T23:12:04.412Z,95.86
2018-09-24T23:14:39.250Z,96.41
2018-09-24T23:17:15.135Z,96.26
2018-09-24T23:19:49.959Z,96.42
2018-09-24T23:22:25.078Z,96.52
2018-09-24T23:24:59.850Z,96.13
2018-09-24T23:27:34.495Z,96.65
2018-09-24T23:30:09.122Z,96.80
2018-09-24T23:32:44.814Z,97.59
2018-09-24T23:35:19.495Z,96.11
2018-09-24T23:37:54.066Z,95.53
2018-09-24T23:40:29.386Z,96.13
2018-09-24T23:43:03.797Z,95.50
2018-09-24T23:45:38.249Z,96.22
2018-09-24T23:48:12.826Z,95.46
2018-09-24T23:50:47.851Z,96.38
2018-09-24T23:53:22.447Z,96.03
2018-09-24T23:55:57.932Z,96.03
2018-09-24T23:58:32.414Z,96.28
